sensor_id;sensor_type;location;lat;lon;timestamp;temperature;humidity
7248;DHT22;3665;51.034;13.642;2023-04-03T00:02:56;2.00;1.00
7248;DHT22;3665;51.034;13.642;2023-04-03T00:07:39;1.90;1.00
7248;DHT22;3665;51.034;13.642;2023-04-03T00:17:19;1.80;1.00
7248;DHT22;3665;51.034;13.642;2023-04-03T00:22:04;1.80;1.00
7248;DHT22;3665;51.034;13.642;2023-04-03T00:26:58;1.80;1.00
7248;DHT22;3665;51.034;13.642;2023-04-03T00:31:43;1.80;1.00
7248;DHT22;3665;51.034;13.642;2023-04-03T00:36:30;1.60;1.00
7248;DHT22;3665;51.034;13.642;2023-04-03T00:41:14;1.60;1.00
7248;DHT22;3665;51.034;13.642;2023-04-03T00:46:12;1.60;1.00
7248;DHT22;3665;51.034;13.642;2023-04-03T00:50:57;1.50;1.00
7248;DHT22;3665;51.034;13.642;2023-04-03T00:55:46;1.40;1.00
7248;DHT22;3665;51.034;13.642;2023-04-03T01:00:33;1.50;1.00
7248;DHT22;3665;51.034;13.642;2023-04-03T01:05:20;1.30;1.00
7248;DHT22;3665;51.034;13.642;2023-04-03T01:10:12;1.30;1.00
7248;DHT22;3665;51.034;13.642;2023-04-03T01:15:01;1.20;1.00
7248;DHT22;3665;51.034;13.642;2023-04-03T01:19:54;1.20;1.00
7248;DHT22;3665;51.034;13.642;2023-04-03T01:24:48;1.30;1.00
7248;DHT22;3665;51.034;13.642;2023-04-03T01:29:38;1.10;1.00
7248;DHT22;3665;51.034;13.642;2023-04-03T01:34:28;1.00;1.00
7248;DHT22;3665;51.034;13.642;2023-04-03T01:39:13;1.00;1.00
7248;DHT22;3665;51.034;13.642;2023-04-03T01:44:00;0.90;1.00
7248;DHT22;3665;51.034;13.642;2023-04-03T01:48:49;0.90;1.00
7248;DHT22;3665;51.034;13.642;2023-04-03T01:53:36;0.90;1.00
7248;DHT22;3665;51.034;13.642;2023-04-03T01:58:23;0.80;1.00
7248;DHT22;3665;51.034;13.642;2023-04-03T02:03:11;0.70;1.00
7248;DHT22;3665;51.034;13.642;2023-04-03T02:08:04;0.70;1.00
7248;DHT22;3665;51.034;13.642;2023-04-03T02:12:51;0.70;1.00
7248;DHT22;3665;51.034;13.642;2023-04-03T02:17:36;0.60;1.00
7248;DHT22;3665;51.034;13.642;2023-04-03T02:22:26;0.50;1.00
7248;DHT22;3665;51.034;13.642;2023-04-03T02:27:12;0.50;1.00
7248;DHT22;3665;51.034;13.642;2023-04-03T02:32:02;0.30;1.00
7248;DHT22;3665;51.034;13.642;2023-04-03T02:36:47;0.30;1.00
7248;DHT22;3665;51.034;13.642;2023-04-03T02:41:39;0.20;1.00
7248;DHT22;3665;51.034;13.642;2023-04-03T02:46:42;0.20;1.00
7248;DHT22;3665;51.034;13.642;2023-04-03T02:51:30;0.00;1.00
7248;DHT22;3665;51.034;13.642;2023-04-03T02:56:16;0.00;1.00
7248;DHT22;3665;51.034;13.642;2023-04-03T03:01:03;-0.10;1.00
7248;DHT22;3665;51.034;13.642;2023-04-03T03:06:01;-0.20;1.00
7248;DHT22;3665;51.034;13.642;2023-04-03T03:10:58;-0.30;1.00
7248;DHT22;3665;51.034;13.642;2023-04-03T03:15:44;-0.50;1.00
7248;DHT22;3665;51.034;13.642;2023-04-03T03:20:36;-0.70;1.00
7248;DHT22;3665;51.034;13.642;2023-04-03T03:25:20;-0.90;1.00
7248;DHT22;3665;51.034;13.642;2023-04-03T03:30:09;-0.90;1.00
7248;DHT22;3665;51.034;13.642;2023-04-03T03:34:59;-1.00;1.00
7248;DHT22;3665;51.034;13.642;2023-04-03T03:39:45;-1.20;1.00
7248;DHT22;3665;51.034;13.642;2023-04-03T03:44:32;-1.20;1.00
7248;DHT22;3665;51.034;13.642;2023-04-03T03:49:21;-1.20;1.00
7248;DHT22;3665;51.034;13.642;2023-04-03T03:54:09;-1.40;1.00
7248;DHT22;3665;51.034;13.642;2023-04-03T03:58:57;-1.40;1.00
7248;DHT22;3665;51.034;13.642;2023-04-03T04:03:44;-1.60;1.00
7248;DHT22;3665;51.034;13.642;2023-04-03T04:08:33;-1.60;1.00
7248;DHT22;3665;51.034;13.642;2023-04-03T04:13:20;-1.60;1.00
7248;DHT22;3665;51.034;13.642;2023-04-03T04:18:08;-1.70;1.00
7248;DHT22;3665;51.034;13.642;2023-04-03T04:22:56;-1.70;1.00
7248;DHT22;3665;51.034;13.642;2023-04-03T04:27:46;-1.70;1.00
7248;DHT22;3665;51.034;13.642;2023-04-03T04:32:33;-1.80;1.00
7248;DHT22;3665;51.034;13.642;2023-04-03T04:37:19;-1.90;1.00
7248;DHT22;3665;51.034;13.642;2023-04-03T04:42:11;-1.90;1.00
7248;DHT22;3665;51.034;13.642;2023-04-03T04:47:15;-1.80;1.00
7248;DHT22;3665;51.034;13.642;2023-04-03T04:51:59;-1.90;1.00
7248;DHT22;3665;51.034;13.642;2023-04-03T04:56:47;-1.80;1.00
7248;DHT22;3665;51.034;13.642;2023-04-03T05:01:38;-1.80;1.00
7248;DHT22;3665;51.034;13.642;2023-04-03T05:06:27;-1.70;1.00
7248;DHT22;3665;51.034;13.642;2023-04-03T05:11:12;-1.50;1.00
7248;DHT22;3665;51.034;13.642;2023-04-03T05:16:00;-1.30;1.00
7248;DHT22;3665;51.034;13.642;2023-04-03T05:20:50;-1.10;1.00
7248;DHT22;3665;51.034;13.642;2023-04-03T05:25:37;-1.00;1.00
7248;DHT22;3665;51.034;13.642;2023-04-03T05:30:25;-0.80;1.00
7248;DHT22;3665;51.034;13.642;2023-04-03T05:35:11;-0.80;1.00
7248;DHT22;3665;51.034;13.642;2023-04-03T05:40:03;-0.70;1.00
7248;DHT22;3665;51.034;13.642;2023-04-03T05:44:48;-0.70;1.00
7248;DHT22;3665;51.034;13.642;2023-04-03T05:49:35;-0.60;1.00
7248;DHT22;3665;51.034;13.642;2023-04-03T05:54:25;-0.50;1.00
7248;DHT22;3665;51.034;13.642;2023-04-03T05:59:30;-0.50;1.00
7248;DHT22;3665;51.034;13.642;2023-04-03T06:04:19;-0.40;1.00
7248;DHT22;3665;51.034;13.642;2023-04-03T06:09:03;-0.40;1.00
7248;DHT22;3665;51.034;13.642;2023-04-03T06:13:55;-0.20;1.00
7248;DHT22;3665;51.034;13.642;2023-04-03T06:18:39;-0.20;1.00
7248;DHT22;3665;51.034;13.642;2023-04-03T06:23:28;-0.20;1.00
7248;DHT22;3665;51.034;13.642;2023-04-03T06:28:17;-0.10;1.00
7248;DHT22;3665;51.034;13.642;2023-04-03T06:33:04;-0.10;1.00
7248;DHT22;3665;51.034;13.642;2023-04-03T06:37:51;-0.20;1.00
7248;DHT22;3665;51.034;13.642;2023-04-03T06:42:57;-0.20;1.00
7248;DHT22;3665;51.034;13.642;2023-04-03T06:47:43;-0.20;1.00
7248;DHT22;3665;51.034;13.642;2023-04-03T06:52:33;-0.10;1.00
7248;DHT22;3665;51.034;13.642;2023-04-03T06:57:20;0.00;1.00
7248;DHT22;3665;51.034;13.642;2023-04-03T07:02:13;0.10;1.00
7248;DHT22;3665;51.034;13.642;2023-04-03T07:06:57;0.00;1.00
7248;DHT22;3665;51.034;13.642;2023-04-03T07:11:44;0.10;1.00
7248;DHT22;3665;51.034;13.642;2023-04-03T07:16:33;0.30;1.00
7248;DHT22;3665;51.034;13.642;2023-04-03T07:21:22;0.40;1.00
7248;DHT22;3665;51.034;13.642;2023-04-03T07:26:08;0.40;1.00
7248;DHT22;3665;51.034;13.642;2023-04-03T07:31:00;0.40;1.00
7248;DHT22;3665;51.034;13.642;2023-04-03T07:35:45;0.40;1.00
7248;DHT22;3665;51.034;13.642;2023-04-03T07:40:32;0.50;1.00
7248;DHT22;3665;51.034;13.642;2023-04-03T07:45:21;0.70;1.00
7248;DHT22;3665;51.034;13.642;2023-04-03T07:50:09;0.70;1.00
7248;DHT22;3665;51.034;13.642;2023-04-03T07:54:56;0.80;1.00
7248;DHT22;3665;51.034;13.642;2023-04-03T07:59:44;1.00;1.00
7248;DHT22;3665;51.034;13.642;2023-04-03T08:04:37;0.90;1.00
7248;DHT22;3665;51.034;13.642;2023-04-03T08:09:20;1.00;1.00
7248;DHT22;3665;51.034;13.642;2023-04-03T08:14:10;1.10;1.00
7248;DHT22;3665;51.034;13.642;2023-04-03T08:18:59;1.30;1.00
7248;DHT22;3665;51.034;13.642;2023-04-03T08:23:44;1.60;1.00
7248;DHT22;3665;51.034;13.642;2023-04-03T08:28:33;2.00;1.00
7248;DHT22;3665;51.034;13.642;2023-04-03T08:33:23;2.30;1.00
7248;DHT22;3665;51.034;13.642;2023-04-03T08:38:10;2.40;1.00
7248;DHT22;3665;51.034;13.642;2023-04-03T08:43:12;2.60;1.00
7248;DHT22;3665;51.034;13.642;2023-04-03T08:48:19;3.20;1.00
7248;DHT22;3665;51.034;13.642;2023-04-03T08:53:08;3.20;1.00
7248;DHT22;3665;51.034;13.642;2023-04-03T08:58:12;3.10;1.00
7248;DHT22;3665;51.034;13.642;2023-04-03T09:02:58;3.20;1.00
7248;DHT22;3665;51.034;13.642;2023-04-03T09:07:47;3.20;1.00
7248;DHT22;3665;51.034;13.642;2023-04-03T09:12:37;3.30;1.00
7248;DHT22;3665;51.034;13.642;2023-04-03T09:17:30;3.40;1.00
7248;DHT22;3665;51.034;13.642;2023-04-03T09:22:28;3.80;1.00
7248;DHT22;3665;51.034;13.642;2023-04-03T09:27:20;4.10;1.00
7248;DHT22;3665;51.034;13.642;2023-04-03T09:32:23;4.50;1.00
7248;DHT22;3665;51.034;13.642;2023-04-03T09:37:37;4.60;1.00
7248;DHT22;3665;51.034;13.642;2023-04-03T09:42:24;5.20;1.00
7248;DHT22;3665;51.034;13.642;2023-04-03T09:47:18;5.40;1.00
7248;DHT22;3665;51.034;13.642;2023-04-03T09:52:19;5.70;1.00
7248;DHT22;3665;51.034;13.642;2023-04-03T09:57:08;6.20;1.00
7248;DHT22;3665;51.034;13.642;2023-04-03T10:01:59;6.60;1.00
7248;DHT22;3665;51.034;13.642;2023-04-03T10:06:45;6.30;1.00
7248;DHT22;3665;51.034;13.642;2023-04-03T10:11:29;5.80;1.00
7248;DHT22;3665;51.034;13.642;2023-04-03T10:16:18;5.40;1.00
7248;DHT22;3665;51.034;13.642;2023-04-03T10:21:06;5.40;1.00
7248;DHT22;3665;51.034;13.642;2023-04-03T10:26:09;5.00;1.00
7248;DHT22;3665;51.034;13.642;2023-04-03T10:30:59;5.70;1.00
7248;DHT22;3665;51.034;13.642;2023-04-03T10:36:10;6.60;1.00
7248;DHT22;3665;51.034;13.642;2023-04-03T10:41:07;6.50;1.00
7248;DHT22;3665;51.034;13.642;2023-04-03T10:45:59;6.20;1.00
7248;DHT22;3665;51.034;13.642;2023-04-03T10:50:56;7.50;1.00
7248;DHT22;3665;51.034;13.642;2023-04-03T10:55:48;6.70;1.00
7248;DHT22;3665;51.034;13.642;2023-04-03T11:00:39;6.60;1.00
7248;DHT22;3665;51.034;13.642;2023-04-03T11:05:41;6.40;1.00
7248;DHT22;3665;51.034;13.642;2023-04-03T11:10:31;6.30;1.00
7248;DHT22;3665;51.034;13.642;2023-04-03T11:15:26;6.20;1.00
7248;DHT22;3665;51.034;13.642;2023-04-03T11:20:17;6.10;1.00
7248;DHT22;3665;51.034;13.642;2023-04-03T11:25:13;6.00;1.00
7248;DHT22;3665;51.034;13.642;2023-04-03T11:30:14;6.00;1.00
7248;DHT22;3665;51.034;13.642;2023-04-03T11:35:12;6.00;1.00
7248;DHT22;3665;51.034;13.642;2023-04-03T11:40:00;5.60;1.00
7248;DHT22;3665;51.034;13.642;2023-04-03T11:44:51;5.60;1.00
7248;DHT22;3665;51.034;13.642;2023-04-03T11:49:57;5.90;1.00
7248;DHT22;3665;51.034;13.642;2023-04-03T11:54:50;6.00;1.00
7248;DHT22;3665;51.034;13.642;2023-04-03T11:59:37;5.80;1.00
7248;DHT22;3665;51.034;13.642;2023-04-03T12:04:32;6.20;1.00
7248;DHT22;3665;51.034;13.642;2023-04-03T12:09:24;6.30;1.00
7248;DHT22;3665;51.034;13.642;2023-04-03T12:14:14;6.10;1.00
7248;DHT22;3665;51.034;13.642;2023-04-03T12:19:00;5.90;1.00
7248;DHT22;3665;51.034;13.642;2023-04-03T12:24:03;6.00;1.00
7248;DHT22;3665;51.034;13.642;2023-04-03T12:28:50;6.10;1.00
7248;DHT22;3665;51.034;13.642;2023-04-03T12:39:04;6.20;1.00
7248;DHT22;3665;51.034;13.642;2023-04-03T12:44:25;5.50;1.00
7248;DHT22;3665;51.034;13.642;2023-04-03T12:49:38;5.20;1.00
7248;DHT22;3665;51.034;13.642;2023-04-03T12:54:27;5.20;1.00
7248;DHT22;3665;51.034;13.642;2023-04-03T12:59:16;5.60;1.00
7248;DHT22;3665;51.034;13.642;2023-04-03T13:04:00;6.00;1.00
7248;DHT22;3665;51.034;13.642;2023-04-03T13:08:51;6.00;1.00
7248;DHT22;3665;51.034;13.642;2023-04-03T13:13:36;5.80;1.00
7248;DHT22;3665;51.034;13.642;2023-04-03T13:18:30;5.60;1.00
7248;DHT22;3665;51.034;13.642;2023-04-03T13:23:16;5.80;1.00
7248;DHT22;3665;51.034;13.642;2023-04-03T13:28:04;5.70;1.00
7248;DHT22;3665;51.034;13.642;2023-04-03T13:33:05;6.10;1.00
7248;DHT22;3665;51.034;13.642;2023-04-03T13:37:55;6.30;1.00
7248;DHT22;3665;51.034;13.642;2023-04-03T13:42:42;6.00;1.00
7248;DHT22;3665;51.034;13.642;2023-04-03T13:47:38;5.60;1.00
7248;DHT22;3665;51.034;13.642;2023-04-03T13:52:34;5.40;1.00
7248;DHT22;3665;51.034;13.642;2023-04-03T13:57:22;5.20;1.00
7248;DHT22;3665;51.034;13.642;2023-04-03T14:02:18;5.30;1.00
7248;DHT22;3665;51.034;13.642;2023-04-03T14:07:15;5.70;1.00
7248;DHT22;3665;51.034;13.642;2023-04-03T14:12:04;6.20;1.00
7248;DHT22;3665;51.034;13.642;2023-04-03T14:16:58;5.50;1.00
7248;DHT22;3665;51.034;13.642;2023-04-03T14:21:55;5.40;1.00
7248;DHT22;3665;51.034;13.642;2023-04-03T14:26:40;5.20;1.00
7248;DHT22;3665;51.034;13.642;2023-04-03T14:31:28;5.20;1.00
7248;DHT22;3665;51.034;13.642;2023-04-03T14:36:20;5.30;1.00
7248;DHT22;3665;51.034;13.642;2023-04-03T14:41:04;5.40;1.00
7248;DHT22;3665;51.034;13.642;2023-04-03T14:46:02;5.10;1.00
7248;DHT22;3665;51.034;13.642;2023-04-03T14:50:56;4.80;1.00
7248;DHT22;3665;51.034;13.642;2023-04-03T14:55:50;4.50;1.00
7248;DHT22;3665;51.034;13.642;2023-04-03T15:00:33;4.50;1.00
7248;DHT22;3665;51.034;13.642;2023-04-03T15:05:21;4.40;1.00
7248;DHT22;3665;51.034;13.642;2023-04-03T15:10:16;4.10;1.00
7248;DHT22;3665;51.034;13.642;2023-04-03T15:15:05;4.00;1.00
7248;DHT22;3665;51.034;13.642;2023-04-03T15:19:59;4.10;1.00
7248;DHT22;3665;51.034;13.642;2023-04-03T15:24:48;4.30;1.00
7248;DHT22;3665;51.034;13.642;2023-04-03T15:29:40;4.60;1.00
7248;DHT22;3665;51.034;13.642;2023-04-03T15:34:24;4.80;1.00
7248;DHT22;3665;51.034;13.642;2023-04-03T15:39:12;4.50;1.00
7248;DHT22;3665;51.034;13.642;2023-04-03T15:44:00;4.30;1.00
7248;DHT22;3665;51.034;13.642;2023-04-03T15:48:49;4.20;1.00
7248;DHT22;3665;51.034;13.642;2023-04-03T15:53:39;4.10;1.00
7248;DHT22;3665;51.034;13.642;2023-04-03T15:58:24;3.70;1.00
7248;DHT22;3665;51.034;13.642;2023-04-03T16:03:16;3.60;1.00
7248;DHT22;3665;51.034;13.642;2023-04-03T16:08:00;3.50;1.00
7248;DHT22;3665;51.034;13.642;2023-04-03T16:12:44;3.30;1.00
7248;DHT22;3665;51.034;13.642;2023-04-03T16:17:38;3.40;1.00
7248;DHT22;3665;51.034;13.642;2023-04-03T16:22:28;3.40;1.00
7248;DHT22;3665;51.034;13.642;2023-04-03T16:27:12;3.40;1.00
7248;DHT22;3665;51.034;13.642;2023-04-03T16:31:58;3.20;1.00
7248;DHT22;3665;51.034;13.642;2023-04-03T16:36:42;3.00;1.00
7248;DHT22;3665;51.034;13.642;2023-04-03T16:41:40;2.90;1.00
7248;DHT22;3665;51.034;13.642;2023-04-03T16:46:24;2.90;1.00
7248;DHT22;3665;51.034;13.642;2023-04-03T16:51:13;2.80;1.00
7248;DHT22;3665;51.034;13.642;2023-04-03T16:56:03;2.80;1.00
7248;DHT22;3665;51.034;13.642;2023-04-03T17:00:48;2.70;1.00
7248;DHT22;3665;51.034;13.642;2023-04-03T17:05:37;2.70;1.00
7248;DHT22;3665;51.034;13.642;2023-04-03T17:10:25;2.60;1.00
7248;DHT22;3665;51.034;13.642;2023-04-03T17:15:14;2.50;1.00
7248;DHT22;3665;51.034;13.642;2023-04-03T17:20:00;2.30;1.00
7248;DHT22;3665;51.034;13.642;2023-04-03T17:24:47;2.30;1.00
7248;DHT22;3665;51.034;13.642;2023-04-03T17:29:39;2.20;1.00
7248;DHT22;3665;51.034;13.642;2023-04-03T17:34:24;2.00;1.00
7248;DHT22;3665;51.034;13.642;2023-04-03T17:39:16;1.90;1.00
7248;DHT22;3665;51.034;13.642;2023-04-03T17:44:00;1.60;1.00
7248;DHT22;3665;51.034;13.642;2023-04-03T17:48:49;1.30;1.00
7248;DHT22;3665;51.034;13.642;2023-04-03T17:53:36;1.20;1.00
7248;DHT22;3665;51.034;13.642;2023-04-03T17:58:28;1.10;1.00
7248;DHT22;3665;51.034;13.642;2023-04-03T18:03:13;1.00;1.00
7248;DHT22;3665;51.034;13.642;2023-04-03T18:08:01;1.00;1.00
7248;DHT22;3665;51.034;13.642;2023-04-03T18:12:52;0.70;1.00
7248;DHT22;3665;51.034;13.642;2023-04-03T18:23:21;0.10;1.00
7248;DHT22;3665;51.034;13.642;2023-04-03T18:28:37;-0.40;1.00
7248;DHT22;3665;51.034;13.642;2023-04-03T18:33:22;-0.40;1.00
7248;DHT22;3665;51.034;13.642;2023-04-03T18:38:11;-0.40;1.00
7248;DHT22;3665;51.034;13.642;2023-04-03T18:42:59;-0.10;1.00
7248;DHT22;3665;51.034;13.642;2023-04-03T18:47:44;0.10;1.00
7248;DHT22;3665;51.034;13.642;2023-04-03T18:52:32;0.40;1.00
7248;DHT22;3665;51.034;13.642;2023-04-03T18:57:25;0.30;1.00
7248;DHT22;3665;51.034;13.642;2023-04-03T19:02:11;0.10;1.00
7248;DHT22;3665;51.034;13.642;2023-04-03T19:06:57;0.20;1.00
7248;DHT22;3665;51.034;13.642;2023-04-03T19:11:44;0.40;1.00
7248;DHT22;3665;51.034;13.642;2023-04-03T19:16:38;0.60;1.00
7248;DHT22;3665;51.034;13.642;2023-04-03T19:21:23;0.80;1.00
7248;DHT22;3665;51.034;13.642;2023-04-03T19:26:12;0.90;1.00
7248;DHT22;3665;51.034;13.642;2023-04-03T19:30:56;1.00;1.00
7248;DHT22;3665;51.034;13.642;2023-04-03T19:35:44;1.00;1.00
7248;DHT22;3665;51.034;13.642;2023-04-03T19:40:37;1.00;1.00
7248;DHT22;3665;51.034;13.642;2023-04-03T19:45:52;1.10;1.00
7248;DHT22;3665;51.034;13.642;2023-04-03T19:50:43;1.10;1.00
7248;DHT22;3665;51.034;13.642;2023-04-03T19:55:30;1.20;1.00
7248;DHT22;3665;51.034;13.642;2023-04-03T20:00:19;1.10;1.00
7248;DHT22;3665;51.034;13.642;2023-04-03T20:05:06;1.10;1.00
7248;DHT22;3665;51.034;13.642;2023-04-03T20:09:53;1.30;1.00
7248;DHT22;3665;51.034;13.642;2023-04-03T20:14:43;1.30;1.00
7248;DHT22;3665;51.034;13.642;2023-04-03T20:19:35;1.30;1.00
7248;DHT22;3665;51.034;13.642;2023-04-03T20:24:33;1.20;1.00
7248;DHT22;3665;51.034;13.642;2023-04-03T20:29:20;1.30;1.00
7248;DHT22;3665;51.034;13.642;2023-04-03T20:34:08;1.20;1.00
7248;DHT22;3665;51.034;13.642;2023-04-03T20:39:20;1.20;1.00
7248;DHT22;3665;51.034;13.642;2023-04-03T20:44:50;1.00;1.00
7248;DHT22;3665;51.034;13.642;2023-04-03T20:50:13;1.20;1.00
7248;DHT22;3665;51.034;13.642;2023-04-03T20:55:15;1.10;1.00
7248;DHT22;3665;51.034;13.642;2023-04-03T21:00:03;1.20;1.00
7248;DHT22;3665;51.034;13.642;2023-04-03T21:04:51;1.10;1.00
7248;DHT22;3665;51.034;13.642;2023-04-03T21:20:54;1.10;1.00
7248;DHT22;3665;51.034;13.642;2023-04-03T21:25:38;1.20;1.00
7248;DHT22;3665;51.034;13.642;2023-04-03T21:30:25;1.10;1.00
7248;DHT22;3665;51.034;13.642;2023-04-03T21:35:12;1.20;1.00
7248;DHT22;3665;51.034;13.642;2023-04-03T21:40:03;1.20;1.00
7248;DHT22;3665;51.034;13.642;2023-04-03T21:44:48;1.20;1.00
7248;DHT22;3665;51.034;13.642;2023-04-03T21:49:36;1.10;1.00
7248;DHT22;3665;51.034;13.642;2023-04-03T21:54:27;1.20;1.00
7248;DHT22;3665;51.034;13.642;2023-04-03T21:59:16;1.20;1.00
7248;DHT22;3665;51.034;13.642;2023-04-03T22:04:00;1.20;1.00
7248;DHT22;3665;51.034;13.642;2023-04-03T22:08:56;1.00;1.00
7248;DHT22;3665;51.034;13.642;2023-04-03T22:13:55;1.10;1.00
7248;DHT22;3665;51.034;13.642;2023-04-03T22:18:44;1.00;1.00
7248;DHT22;3665;51.034;13.642;2023-04-03T22:23:28;1.00;1.00
7248;DHT22;3665;51.034;13.642;2023-04-03T22:28:17;0.90;1.00
7248;DHT22;3665;51.034;13.642;2023-04-03T22:33:05;0.90;1.00
7248;DHT22;3665;51.034;13.642;2023-04-03T22:37:56;1.00;1.00
7248;DHT22;3665;51.034;13.642;2023-04-03T22:42:40;1.00;1.00
7248;DHT22;3665;51.034;13.642;2023-04-03T22:47:28;1.00;1.00
7248;DHT22;3665;51.034;13.642;2023-04-03T22:52:21;1.00;1.00
7248;DHT22;3665;51.034;13.642;2023-04-03T22:57:06;1.00;1.00
7248;DHT22;3665;51.034;13.642;2023-04-03T23:01:52;1.00;1.00
7248;DHT22;3665;51.034;13.642;2023-04-03T23:06:45;0.90;1.00
7248;DHT22;3665;51.034;13.642;2023-04-03T23:11:29;1.00;1.00
7248;DHT22;3665;51.034;13.642;2023-04-03T23:16:18;0.90;1.00
7248;DHT22;3665;51.034;13.642;2023-04-03T23:21:08;0.90;1.00
7248;DHT22;3665;51.034;13.642;2023-04-03T23:25:52;0.90;1.00
7248;DHT22;3665;51.034;13.642;2023-04-03T23:30:42;1.00;1.00
7248;DHT22;3665;51.034;13.642;2023-04-03T23:35:32;0.90;1.00
7248;DHT22;3665;51.034;13.642;2023-04-03T23:40:16;0.90;1.00
7248;DHT22;3665;51.034;13.642;2023-04-03T23:45:25;0.90;1.00
7248;DHT22;3665;51.034;13.642;2023-04-03T23:50:09;0.90;1.00
7248;DHT22;3665;51.034;13.642;2023-04-03T23:54:58;1.00;1.00
7248;DHT22;3665;51.034;13.642;2023-04-03T23:59:46;1.00;1.00
